Latest Weather Observations for Grove

IDT60901

Issued at 11:11 pm EST Tuesday 7 April 2020 (issued every 10 minutes, with the page automatically refreshed every 10 minutes)

About weather observations | Map of Hobart area stations | Latest observations for Hobart area | Other Formats
Station Details ID: 094220 Name: GROVE (RESEARCH STATION) Lat: -42.99 Lon: 147.07 Height: 65.0 m
Data from the previous 72 hours. | See also: Recent months at Grove
Date/Time
EST
Temp
°C
App
Temp
°C
Dew
Point
°C
Rel
Hum
%
Delta-T
°C
Wind Press
QNH
hPa
Press
MSL
hPa
Rain since
9am
mm
Dir  Spd
km/h
Gust
km/h
Spd
kts
Gust
kts
07/11:00pm 10.5 9.1 9.7 95 0.4 SW 7 11 4 6 - - 0.6
07/10:30pm 10.6 10.7 10.0 96 0.3 CALM 0 0 0 0 - - 0.4
07/10:00pm 10.7 10.7 9.7 93 0.5 CALM 0 0 0 0 - - 0.4
07/09:30pm 10.9 8.7 9.5 91 0.7 WSW 11 19 6 10 - - 0.2
07/09:00pm 11.9 9.5 8.5 80 1.7 SSW 11 19 6 10 - - 0.0
07/08:30pm 11.4 10.4 8.8 84 1.3 W 4 7 2 4 - - 0.0
07/08:00pm 11.8 11.4 8.4 80 1.7 CALM 0 0 0 0 - - 0.0
07/07:30pm 11.6 11.3 8.6 82 1.5 CALM 0 0 0 0 - - 0.0
07/07:00pm 11.4 10.7 8.6 83 1.4 SW 2 6 1 3 - - 0.0
07/06:30pm 11.9 10.7 8.0 77 1.9 NW 4 7 2 4 - - 0.0
07/06:00pm 12.9 11.0 7.4 69 2.7 WSW 7 13 4 7 - - 0.0
07/05:30pm 13.7 11.9 7.8 67 2.9 SW 7 13 4 7 - - 0.0
07/05:00pm 14.1 12.3 7.9 66 3.1 SW 7 13 4 7 - - 0.0
07/04:30pm 14.6 12.3 7.3 61 3.6 WSW 9 13 5 7 - - 0.0
07/04:00pm 14.8 11.3 7.1 60 3.8 WSW 15 22 8 12 - - 0.0
07/03:30pm 15.2 11.6 6.8 57 4.1 SW 15 24 8 13 - - 0.0
07/03:00pm 15.4 11.1 6.9 57 4.2 WSW 19 24 10 13 - - 0.0
07/02:30pm 15.4 13.0 7.1 57 4.1 SW 9 19 5 10 - - 0.0
07/02:00pm 15.5 12.4 7.2 57 4.1 SSW 13 19 7 10 - - 0.0
07/01:30pm 14.8 12.0 6.8 58 3.9 SSW 11 17 6 9 - - 0.0
07/01:00pm 14.9 11.0 7.0 59 3.9 SW 17 24 9 13 - - 0.0
07/12:30pm 15.0 10.9 6.3 56 4.2 SW 17 30 9 16 - - 0.0
07/12:00pm 14.7 11.0 6.2 56 4.1 SW 15 24 8 13 - - 0.0
07/11:30am 14.6 11.0 6.6 58 3.9 SSW 15 24 8 13 - - 0.0
07/11:00am 14.4 11.0 6.1 57 4.0 WSW 13 22 7 12 - - 0.0
07/10:30am 13.4 11.2 6.3 62 3.4 SW 7 13 4 7 - - 0.0
07/10:00am 13.1 11.2 7.4 68 2.8 SSW 7 13 4 7 - - 0.0
07/09:30am 11.3 10.4 6.2 71 2.4 CALM 0 6 0 3 - - 0.0
07/09:00am 8.8 6.6 5.5 80 1.5 WSW 6 7 3 4 - - 0.0
07/08:30am 7.0 5.2 5.4 89 0.7 WSW 4 9 2 5 - - 0.0
07/08:00am 5.7 3.4 4.8 94 0.4 NE 6 9 3 5 - - 0.0
07/07:30am 3.9 1.8 3.9 100 0.0 NNE 4 9 2 5 - - 0.0
07/07:00am 2.3 0.3 2.3 100 0.0 N 2 6 1 3 - - 0.0
07/06:30am 2.3 -0.5 2.0 98 0.1 NE 6 9 3 5 - - 0.0
07/06:00am 2.7 -0.1 2.2 96 0.2 NE 6 9 3 5 - - 0.0
07/05:30am 2.9 1.3 2.6 98 0.1 CALM 0 0 0 0 - - 0.0
07/05:00am 3.2 0.9 3.0 99 0.1 N 4 6 2 3 - - 0.0
07/04:30am 3.4 1.6 3.2 99 0.1 ENE 2 7 1 4 - - 0.0
07/04:00am 4.0 1.4 3.3 95 0.3 NE 6 7 3 4 - - 0.0
07/03:30am 4.6 2.2 4.4 99 0.1 NE 6 9 3 5 - - 0.0
07/03:00am 5.0 3.0 4.3 95 0.3 NNW 4 7 2 4 - - 0.0
07/02:30am 6.8 5.4 5.7 93 0.5 NE 2 6 1 3 - - 0.0
07/02:00am 7.3 6.4 6.2 93 0.5 CALM 0 0 0 0 - - 0.0
07/01:30am 7.3 6.4 6.2 93 0.5 CALM 0 0 0 0 - - 0.0
07/01:00am 7.4 5.4 6.1 91 0.6 ENE 6 9 3 5 - - 0.0
07/12:30am 7.1 5.4 6.0 93 0.5 ENE 4 7 2 4 - - 0.0
07/12:00am 7.2 5.9 5.9 91 0.6 NNW 2 7 1 4 - - 0.0
 
Date/Time
EST
Temp
°C
App
Temp
°C
Dew
Point
°C
Rel
Hum
%
Delta-T
°C
Wind Press
QNH
hPa
Press
MSL
hPa
Rain since
9am
mm
Dir  Spd
km/h
Gust
km/h
Spd
kts
Gust
kts
06/11:30pm 7.5 6.7 6.4 93 0.5 CALM 0 0 0 0 - - 0.0
06/11:00pm 7.8 6.5 5.8 87 0.9 NNE 2 6 1 3 - - 0.0
06/10:30pm 8.7 6.7 6.1 84 1.2 N 6 7 3 4 - - 0.0
06/10:00pm 8.7 6.7 6.1 84 1.2 N 6 9 3 5 - - 0.0
06/09:30pm 9.6 7.4 5.2 74 2.0 N 6 7 3 4 - - 0.0
06/09:00pm 10.6 7.9 3.8 63 3.0 S 7 15 4 8 - - 0.0
06/08:30pm 10.6 7.2 3.8 63 3.0 SSW 11 17 6 9 - - 0.0
06/08:00pm 10.7 8.0 3.7 62 3.1 SW 7 15 4 8 - - 0.0
06/07:30pm 10.8 7.6 3.3 60 3.3 SW 9 13 5 7 - - 0.0
06/07:00pm 10.8 6.9 3.5 60 3.2 SW 13 22 7 12 - - 0.0
06/06:30pm 11.1 7.4 4.2 62 3.1 SW 13 20 7 11 - - 0.0
06/06:00pm 11.4 7.7 4.3 61 3.2 SW 13 24 7 13 - - 0.0
06/05:30pm 11.6 7.8 4.0 59 3.4 SW 13 19 7 10 - - 0.0
06/05:00pm 12.0 7.7 3.5 56 3.8 W 15 22 8 12 - - 0.0
06/04:30pm 12.0 8.2 3.7 57 3.7 WSW 13 17 7 9 - - 0.0
06/04:00pm 12.2 8.0 3.7 56 3.8 SW 15 20 8 11 - - 0.0
06/03:30pm 12.6 7.6 3.4 53 4.1 WSW 19 28 10 15 - - 0.0
06/03:00pm 13.0 8.1 1.9 47 4.8 W 17 28 9 15 - - 0.0
06/02:30pm 14.5 9.2 3.2 46 5.1 WSW 20 30 11 16 - - 0.0
06/02:00pm 13.9 8.7 2.3 45 5.1 WSW 19 30 10 16 - - 0.0
06/01:30pm 13.9 9.0 2.3 45 5.1 WSW 17 30 9 16 - - 0.0
06/01:00pm 12.9 7.6 3.0 51 4.4 WSW 20 32 11 17 - - 0.0
06/12:30pm 12.7 6.4 1.8 47 4.7 WSW 24 35 13 19 - - 0.0
06/12:00pm 12.9 8.6 3.3 52 4.3 SW 15 24 8 13 - - 0.0
06/11:30am 12.8 7.9 2.3 49 4.6 SW 17 30 9 16 - - 0.0
06/11:00am 13.2 8.9 3.4 51 4.4 WSW 15 26 8 14 - - 0.0
06/10:30am 12.4 10.1 5.6 63 3.2 NNW 7 11 4 6 - - 0.0
06/10:00am 11.0 8.9 5.8 70 2.4 ESE 6 9 3 5 - - 0.0
06/09:30am 10.8 9.9 6.1 73 2.2 CALM 0 0 0 0 - - 0.0
06/09:00am 10.6 8.3 5.6 71 2.3 WSW 7 15 4 8 - - 1.6
06/08:30am 10.3 7.1 5.3 71 2.3 SW 11 19 6 10 - - 1.6
06/08:00am 10.1 6.9 5.0 70 2.3 WSW 11 13 6 7 - - 1.6
06/07:30am 9.5 7.3 5.1 74 2.0 W 6 9 3 5 - - 1.6
06/07:00am 8.8 6.1 3.7 70 2.2 WSW 7 9 4 5 - - 1.6
06/06:30am 9.3 6.7 4.1 70 2.3 WSW 7 11 4 6 - - 1.6
06/06:00am 9.7 5.8 3.5 65 2.7 WSW 13 17 7 9 - - 1.6
06/05:30am 9.2 6.6 3.4 67 2.5 S 6 9 3 5 - - 1.6
06/05:00am 9.1 6.6 3.8 69 2.3 S 6 9 3 5 - - 1.6
06/04:30am 9.1 6.3 3.3 67 2.5 WSW 7 17 4 9 - - 1.6
06/04:00am 9.3 6.0 2.7 63 2.8 WSW 9 19 5 10 - - 1.6
06/03:30am 9.0 6.1 2.6 64 2.7 W 7 13 4 7 - - 1.6
06/03:00am 9.1 4.9 1.9 60 3.0 W 13 30 7 16 - - 1.6
06/02:30am 8.5 4.8 2.3 65 2.6 WSW 11 20 6 11 - - 1.6
06/02:00am 8.0 4.7 2.5 68 2.3 SW 9 17 5 9 - - 1.6
06/01:30am 8.2 4.8 1.9 64 2.6 W 9 24 5 13 - - 1.6
06/01:00am 6.5 3.8 2.6 76 1.6 SSW 6 9 3 5 - - 1.6
06/12:30am 5.0 2.8 3.3 89 0.7 E 4 7 2 4 - - 1.6
06/12:00am 4.6 1.9 2.4 86 0.9 ENE 6 9 3 5 - - 1.4
 
Date/Time
EST
Temp
°C
App
Temp
°C
Dew
Point
°C
Rel
Hum
%
Delta-T
°C
Wind Press
QNH
hPa
Press
MSL
hPa
Rain since
9am
mm
Dir  Spd
km/h
Gust
km/h
Spd
kts
Gust
kts
05/11:30pm 3.7 1.0 2.7 93 0.4 ESE 6 9 3 5 - - 1.4
05/11:00pm 4.7 2.8 2.7 87 0.8 NE 2 9 1 5 - - 1.4
05/10:30pm 4.7 2.7 2.2 84 1.0 SSE 2 7 1 4 - - 1.4
05/10:00pm 4.0 2.1 3.0 93 0.4 SW 2 11 1 6 - - 1.4
05/09:30pm 4.5 2.4 4.0 97 0.2 S 4 9 2 5 - - 1.4
05/09:00pm 3.7 1.1 3.2 97 0.2 NE 6 7 3 4 - - 1.4
05/08:30pm 3.8 2.4 3.6 99 0.1 CALM 0 7 0 4 - - 1.4
05/08:00pm 4.4 2.3 3.9 97 0.2 NE 4 9 2 5 - - 1.4
05/07:30pm 4.7 2.1 4.0 95 0.3 N 7 9 4 5 - - 1.4
05/07:00pm 5.3 3.1 3.6 89 0.7 SSW 4 7 2 4 - - 1.2
05/06:30pm 6.1 3.5 4.0 86 0.9 WSW 7 13 4 7 - - 1.2
05/06:00pm 6.9 2.3 3.6 79 1.4 W 17 26 9 14 - - 1.0
05/05:30pm 7.3 4.1 3.0 74 1.8 WNW 9 11 5 6 - - 0.6
05/05:00pm 8.7 4.5 1.4 60 3.0 W 13 22 7 12 - - 0.6
05/04:30pm 8.3 3.7 1.8 63 2.7 W 15 22 8 12 - - 0.6
05/04:00pm 9.6 4.7 2.0 59 3.2 W 17 22 9 12 - - 0.6
05/03:30pm 6.9 1.7 3.6 79 1.4 SW 20 41 11 22 - - 0.6
05/03:24pm 6.7 -0.4 3.4 79 1.4 WSW 30 48 16 26 - - 0.4
05/03:20pm 7.5 -0.8 2.2 69 2.2 WSW 35 48 19 26 - - 0.2
05/03:00pm 10.0 5.0 1.3 54 3.6 WSW 17 28 9 15 - - 0.2
05/02:30pm 10.5 5.1 2.6 58 3.4 SW 20 28 11 15 - - 0.2
05/02:00pm 11.7 5.0 -1.4 40 5.2 W 24 33 13 18 - - 0.2
05/01:30pm 10.8 5.5 4.9 67 2.7 S 22 33 12 18 - - 0.2
05/01:00pm 10.8 7.1 2.4 56 3.6 WSW 11 22 6 12 - - 0.2
05/12:30pm 8.3 4.0 3.4 71 2.1 SW 15 24 8 13 - - 0.2
05/12:00pm 10.7 6.6 2.0 55 3.7 WSW 13 20 7 11 - - 0.2
05/11:30am 9.9 6.0 3.5 64 2.8 WSW 13 20 7 11 - - 0.2
05/11:00am 8.8 5.0 1.5 60 3.0 SSW 11 15 6 8 - - 0.0
05/10:30am 8.2 4.5 2.5 67 2.4 SSW 11 15 6 8 - - 0.0
05/10:00am 7.6 4.3 2.6 70 2.1 SSW 9 11 5 6 - - 0.0
05/09:30am 6.6 4.0 3.0 78 1.5 SW 6 9 3 5 - - 0.0
05/09:00am 5.7 2.9 3.1 83 1.1 WSW 7 9 4 5 - - 1.0
05/08:30am 5.2 2.9 2.8 84 1.0 W 4 6 2 3 - - 1.0
05/08:00am 4.5 2.2 2.5 87 0.8 NW 4 9 2 5 - - 1.0
05/07:30am 4.9 2.1 1.9 81 1.2 E 6 9 3 5 - - 1.0
05/07:00am 4.0 1.0 2.2 88 0.7 E 7 9 4 5 - - 1.0
05/06:30am 4.2 1.3 1.7 84 1.0 WNW 6 11 3 6 - - 1.0
05/06:00am 4.4 1.5 1.3 80 1.2 NE 6 11 3 6 - - 1.0
05/05:30am 4.7 0.4 0.8 76 1.5 E 13 17 7 9 - - 1.0
05/05:00am 4.7 1.1 0.6 75 1.6 E 9 15 5 8 - - 1.0
05/04:30am 5.8 2.1 0.1 67 2.2 N 9 19 5 10 - - 1.0
05/04:00am 5.0 2.0 0.6 73 1.7 ENE 6 11 3 6 - - 1.0
05/03:30am 6.4 1.9 -0.1 63 2.5 W 13 26 7 14 - - 1.0
05/03:00am 6.5 1.3 -0.2 62 2.6 WNW 17 30 9 16 - - 1.0
05/03:30am 6.2 1.4 0.3 66 2.3 WNW 15 24 8 13 - - 1.0
05/03:00am 4.9 1.7 0.8 75 1.6 W 7 9 4 5 - - 1.0
05/02:30am 5.3 2.4 1.3 75 1.6 SSW 6 9 3 5 - - 1.0
05/02:00am 6.9 2.1 0.3 63 2.6 W 15 24 8 13 - - 1.0
05/01:30am 6.3 2.6 -0.2 63 2.5 WNW 9 13 5 7 - - 1.0
05/01:00am 7.1 2.9 -0.7 57 3.0 WNW 11 22 6 12 - - 1.0
05/12:30am 6.8 3.2 0.5 64 2.5 W 9 11 5 6 - - 1.0

Latest Capital City Observations: Canberra | Sydney | Melbourne | Brisbane | Adelaide | Perth | Hobart | Darwin

Other formats

Comma delimited format used in spreadsheet applications
http://www.bom.gov.au/fwo/IDT60901/IDT60901.95977.axf

JavaScript Object Notation format (JSON) in row-major order
http://www.bom.gov.au/fwo/IDT60901/IDT60901.95977.json

Data quality

Most of these data are generated automatically and are frequently updated. Quality checks on data are not normally performed. It is possible for incorrect values to appear. Refer to information at About Latest Weather Observations and please check the disclaimer before using these data.